sensor_id;sensor_type;location;lat;lon;timestamp;P1;durP1;ratioP1;P2;durP2;ratioP2
30571;SDS011;17348;50.948;10.696;2022-12-24T00:00:32;8.55;;;1.20;;
30571;SDS011;17348;50.948;10.696;2022-12-24T00:03:35;9.45;;;1.63;;
30571;SDS011;17348;50.948;10.696;2022-12-24T00:06:38;9.95;;;1.30;;
30571;SDS011;17348;50.948;10.696;2022-12-24T00:09:40;10.70;;;1.38;;
30571;SDS011;17348;50.948;10.696;2022-12-24T00:12:44;6.82;;;1.20;;
30571;SDS011;17348;50.948;10.696;2022-12-24T00:15:47;6.05;;;1.20;;
30571;SDS011;17348;50.948;10.696;2022-12-24T00:18:49;9.38;;;1.83;;
30571;SDS011;17348;50.948;10.696;2022-12-24T00:21:52;12.07;;;1.30;;
30571;SDS011;17348;50.948;10.696;2022-12-24T00:24:54;7.82;;;1.58;;
30571;SDS011;17348;50.948;10.696;2022-12-24T00:27:57;7.90;;;1.50;;
30571;SDS011;17348;50.948;10.696;2022-12-24T00:31:05;10.20;;;1.42;;
30571;SDS011;17348;50.948;10.696;2022-12-24T00:34:08;10.95;;;1.42;;
30571;SDS011;17348;50.948;10.696;2022-12-24T00:37:10;8.27;;;1.10;;
30571;SDS011;17348;50.948;10.696;2022-12-24T00:40:13;8.38;;;1.50;;
30571;SDS011;17348;50.948;10.696;2022-12-24T00:43:16;6.40;;;1.33;;
30571;SDS011;17348;50.948;10.696;2022-12-24T00:46:19;7.32;;;1.38;;
30571;SDS011;17348;50.948;10.696;2022-12-24T00:49:21;8.57;;;1.35;;
30571;SDS011;17348;50.948;10.696;2022-12-24T00:52:23;6.35;;;1.30;;
30571;SDS011;17348;50.948;10.696;2022-12-24T00:55:26;7.78;;;1.08;;
30571;SDS011;17348;50.948;10.696;2022-12-24T00:58:29;6.22;;;1.15;;
30571;SDS011;17348;50.948;10.696;2022-12-24T01:01:32;9.38;;;1.65;;
30571;SDS011;17348;50.948;10.696;2022-12-24T01:04:35;2.75;;;0.93;;
30571;SDS011;17348;50.948;10.696;2022-12-24T01:07:55;11.13;;;1.55;;
30571;SDS011;17348;50.948;10.696;2022-12-24T01:10:57;7.38;;;1.55;;
30571;SDS011;17348;50.948;10.696;2022-12-24T01:14:01;10.20;;;1.17;;
30571;SDS011;17348;50.948;10.696;2022-12-24T01:17:03;10.98;;;1.73;;
30571;SDS011;17348;50.948;10.696;2022-12-24T01:20:06;11.18;;;1.20;;
30571;SDS011;17348;50.948;10.696;2022-12-24T01:23:11;7.85;;;1.27;;
30571;SDS011;17348;50.948;10.696;2022-12-24T01:26:13;3.70;;;1.20;;
30571;SDS011;17348;50.948;10.696;2022-12-24T01:29:17;13.32;;;2.17;;
30571;SDS011;17348;50.948;10.696;2022-12-24T01:32:20;7.90;;;1.67;;
30571;SDS011;17348;50.948;10.696;2022-12-24T01:35:22;8.75;;;1.52;;
30571;SDS011;17348;50.948;10.696;2022-12-24T01:38:24;15.98;;;1.65;;
30571;SDS011;17348;50.948;10.696;2022-12-24T01:41:28;10.75;;;1.38;;
30571;SDS011;17348;50.948;10.696;2022-12-24T01:44:50;11.40;;;1.95;;
30571;SDS011;17348;50.948;10.696;2022-12-24T01:47:54;13.07;;;1.98;;
30571;SDS011;17348;50.948;10.696;2022-12-24T01:50:57;10.35;;;1.60;;
30571;SDS011;17348;50.948;10.696;2022-12-24T01:54:04;13.40;;;1.75;;
30571;SDS011;17348;50.948;10.696;2022-12-24T01:57:12;8.30;;;1.80;;
30571;SDS011;17348;50.948;10.696;2022-12-24T02:00:20;9.50;;;1.67;;
30571;SDS011;17348;50.948;10.696;2022-12-24T02:03:23;7.30;;;1.42;;
30571;SDS011;17348;50.948;10.696;2022-12-24T02:06:25;9.35;;;1.95;;
30571;SDS011;17348;50.948;10.696;2022-12-24T02:09:28;7.57;;;1.60;;
30571;SDS011;17348;50.948;10.696;2022-12-24T02:12:31;11.15;;;1.35;;
30571;SDS011;17348;50.948;10.696;2022-12-24T02:15:41;20.20;;;2.10;;
30571;SDS011;17348;50.948;10.696;2022-12-24T02:19:00;12.18;;;1.50;;
30571;SDS011;17348;50.948;10.696;2022-12-24T02:22:13;6.63;;;1.70;;
30571;SDS011;17348;50.948;10.696;2022-12-24T02:25:23;7.45;;;1.65;;
30571;SDS011;17348;50.948;10.696;2022-12-24T02:28:43;9.70;;;2.00;;
30571;SDS011;17348;50.948;10.696;2022-12-24T02:32:02;12.43;;;1.92;;
30571;SDS011;17348;50.948;10.696;2022-12-24T02:35:08;9.80;;;1.98;;
30571;SDS011;17348;50.948;10.696;2022-12-24T02:38:13;9.93;;;1.63;;
30571;SDS011;17348;50.948;10.696;2022-12-24T02:41:23;8.18;;;1.40;;
30571;SDS011;17348;50.948;10.696;2022-12-24T02:44:28;10.23;;;1.65;;
30571;SDS011;17348;50.948;10.696;2022-12-24T02:47:34;13.55;;;1.58;;
30571;SDS011;17348;50.948;10.696;2022-12-24T02:50:36;10.88;;;2.40;;
30571;SDS011;17348;50.948;10.696;2022-12-24T02:53:39;13.30;;;1.60;;
30571;SDS011;17348;50.948;10.696;2022-12-24T02:56:44;8.13;;;2.22;;
30571;SDS011;17348;50.948;10.696;2022-12-24T03:00:00;8.45;;;1.23;;
30571;SDS011;17348;50.948;10.696;2022-12-24T03:03:10;17.05;;;1.55;;
30571;SDS011;17348;50.948;10.696;2022-12-24T03:06:23;5.30;;;1.65;;
30571;SDS011;17348;50.948;10.696;2022-12-24T03:09:34;26.83;;;2.13;;
30571;SDS011;17348;50.948;10.696;2022-12-24T03:12:46;6.32;;;1.33;;
30571;SDS011;17348;50.948;10.696;2022-12-24T03:15:51;5.55;;;1.08;;
30571;SDS011;17348;50.948;10.696;2022-12-24T03:18:55;16.15;;;1.75;;
30571;SDS011;17348;50.948;10.696;2022-12-24T03:21:59;12.15;;;1.80;;
30571;SDS011;17348;50.948;10.696;2022-12-24T03:25:06;7.47;;;1.63;;
30571;SDS011;17348;50.948;10.696;2022-12-24T03:28:09;11.48;;;1.48;;
30571;SDS011;17348;50.948;10.696;2022-12-24T03:31:14;5.75;;;1.40;;
30571;SDS011;17348;50.948;10.696;2022-12-24T03:34:19;16.27;;;1.73;;
30571;SDS011;17348;50.948;10.696;2022-12-24T03:37:21;10.80;;;1.50;;
30571;SDS011;17348;50.948;10.696;2022-12-24T03:40:24;9.53;;;2.10;;
30571;SDS011;17348;50.948;10.696;2022-12-24T03:43:27;15.57;;;1.70;;
30571;SDS011;17348;50.948;10.696;2022-12-24T03:46:29;7.97;;;1.40;;
30571;SDS011;17348;50.948;10.696;2022-12-24T03:49:33;15.75;;;1.77;;
30571;SDS011;17348;50.948;10.696;2022-12-24T03:52:35;8.20;;;1.50;;
30571;SDS011;17348;50.948;10.696;2022-12-24T03:55:37;13.20;;;1.42;;
30571;SDS011;17348;50.948;10.696;2022-12-24T03:58:40;11.63;;;1.55;;
30571;SDS011;17348;50.948;10.696;2022-12-24T04:01:42;11.52;;;1.55;;
30571;SDS011;17348;50.948;10.696;2022-12-24T04:04:46;11.60;;;1.73;;
30571;SDS011;17348;50.948;10.696;2022-12-24T04:07:48;7.03;;;1.73;;
30571;SDS011;17348;50.948;10.696;2022-12-24T04:10:50;9.38;;;1.48;;
30571;SDS011;17348;50.948;10.696;2022-12-24T04:13:53;9.32;;;1.60;;
30571;SDS011;17348;50.948;10.696;2022-12-24T04:16:55;9.13;;;1.55;;
30571;SDS011;17348;50.948;10.696;2022-12-24T04:19:58;9.43;;;2.05;;
30571;SDS011;17348;50.948;10.696;2022-12-24T04:23:01;9.63;;;1.65;;
30571;SDS011;17348;50.948;10.696;2022-12-24T04:26:04;8.07;;;2.05;;
30571;SDS011;17348;50.948;10.696;2022-12-24T04:29:07;7.32;;;1.50;;
30571;SDS011;17348;50.948;10.696;2022-12-24T04:32:09;12.40;;;1.58;;
30571;SDS011;17348;50.948;10.696;2022-12-24T04:35:13;7.53;;;1.63;;
30571;SDS011;17348;50.948;10.696;2022-12-24T04:38:15;17.00;;;1.65;;
30571;SDS011;17348;50.948;10.696;2022-12-24T04:41:19;10.18;;;1.48;;
30571;SDS011;17348;50.948;10.696;2022-12-24T04:44:22;7.75;;;1.95;;
30571;SDS011;17348;50.948;10.696;2022-12-24T04:47:25;7.43;;;1.40;;
30571;SDS011;17348;50.948;10.696;2022-12-24T04:50:28;8.55;;;1.90;;
30571;SDS011;17348;50.948;10.696;2022-12-24T04:53:31;7.45;;;1.58;;
30571;SDS011;17348;50.948;10.696;2022-12-24T04:56:34;21.02;;;1.88;;
30571;SDS011;17348;50.948;10.696;2022-12-24T04:59:36;11.48;;;1.50;;
30571;SDS011;17348;50.948;10.696;2022-12-24T05:02:38;12.77;;;1.52;;
30571;SDS011;17348;50.948;10.696;2022-12-24T05:05:42;8.85;;;1.35;;
30571;SDS011;17348;50.948;10.696;2022-12-24T05:08:44;8.75;;;1.85;;
30571;SDS011;17348;50.948;10.696;2022-12-24T05:11:47;8.35;;;1.65;;
30571;SDS011;17348;50.948;10.696;2022-12-24T05:14:49;12.95;;;1.90;;
30571;SDS011;17348;50.948;10.696;2022-12-24T05:17:51;5.57;;;1.10;;
30571;SDS011;17348;50.948;10.696;2022-12-24T05:20:55;7.82;;;1.70;;
30571;SDS011;17348;50.948;10.696;2022-12-24T05:23:57;7.43;;;1.75;;
30571;SDS011;17348;50.948;10.696;2022-12-24T05:27:17;8.23;;;1.60;;
30571;SDS011;17348;50.948;10.696;2022-12-24T05:30:19;9.60;;;1.40;;
30571;SDS011;17348;50.948;10.696;2022-12-24T05:33:22;11.82;;;2.22;;
30571;SDS011;17348;50.948;10.696;2022-12-24T05:36:25;15.05;;;2.17;;
30571;SDS011;17348;50.948;10.696;2022-12-24T05:39:28;12.43;;;1.65;;
30571;SDS011;17348;50.948;10.696;2022-12-24T05:42:33;18.70;;;2.25;;
30571;SDS011;17348;50.948;10.696;2022-12-24T05:45:35;16.30;;;2.77;;
30571;SDS011;17348;50.948;10.696;2022-12-24T05:48:37;13.20;;;2.13;;
30571;SDS011;17348;50.948;10.696;2022-12-24T05:51:41;17.38;;;2.40;;
30571;SDS011;17348;50.948;10.696;2022-12-24T05:54:43;21.92;;;2.55;;
30571;SDS011;17348;50.948;10.696;2022-12-24T05:57:45;17.87;;;2.43;;
30571;SDS011;17348;50.948;10.696;2022-12-24T06:00:48;19.03;;;2.30;;
30571;SDS011;17348;50.948;10.696;2022-12-24T06:03:54;12.90;;;2.00;;
30571;SDS011;17348;50.948;10.696;2022-12-24T06:06:59;11.33;;;2.03;;
30571;SDS011;17348;50.948;10.696;2022-12-24T06:10:01;16.55;;;2.42;;
30571;SDS011;17348;50.948;10.696;2022-12-24T06:13:04;16.13;;;1.77;;
30571;SDS011;17348;50.948;10.696;2022-12-24T06:16:07;14.33;;;2.03;;
30571;SDS011;17348;50.948;10.696;2022-12-24T06:19:10;18.17;;;2.50;;
30571;SDS011;17348;50.948;10.696;2022-12-24T06:22:14;21.07;;;2.43;;
30571;SDS011;17348;50.948;10.696;2022-12-24T06:25:16;12.17;;;2.97;;
30571;SDS011;17348;50.948;10.696;2022-12-24T06:28:18;19.47;;;2.47;;
30571;SDS011;17348;50.948;10.696;2022-12-24T06:31:21;21.40;;;2.47;;
30571;SDS011;17348;50.948;10.696;2022-12-24T06:34:24;13.83;;;2.23;;
30571;SDS011;17348;50.948;10.696;2022-12-24T06:37:28;15.83;;;2.80;;
30571;SDS011;17348;50.948;10.696;2022-12-24T06:40:30;21.43;;;3.10;;
30571;SDS011;17348;50.948;10.696;2022-12-24T06:43:33;16.87;;;2.17;;
30571;SDS011;17348;50.948;10.696;2022-12-24T06:46:35;8.67;;;2.00;;
30571;SDS011;17348;50.948;10.696;2022-12-24T06:49:37;11.67;;;1.63;;
30571;SDS011;17348;50.948;10.696;2022-12-24T06:52:41;11.50;;;2.07;;
30571;SDS011;17348;50.948;10.696;2022-12-24T06:55:44;18.73;;;2.57;;
30571;SDS011;17348;50.948;10.696;2022-12-24T06:58:46;20.77;;;2.05;;
30571;SDS011;17348;50.948;10.696;2022-12-24T07:01:49;25.17;;;2.17;;
30571;SDS011;17348;50.948;10.696;2022-12-24T07:04:52;6.88;;;2.13;;
30571;SDS011;17348;50.948;10.696;2022-12-24T07:07:55;8.73;;;1.60;;
30571;SDS011;17348;50.948;10.696;2022-12-24T07:10:58;8.90;;;1.73;;
30571;SDS011;17348;50.948;10.696;2022-12-24T07:14:00;10.63;;;1.83;;
30571;SDS011;17348;50.948;10.696;2022-12-24T07:17:02;12.13;;;3.37;;
30571;SDS011;17348;50.948;10.696;2022-12-24T07:20:05;9.85;;;1.17;;
30571;SDS011;17348;50.948;10.696;2022-12-24T07:23:12;3.73;;;1.50;;
30571;SDS011;17348;50.948;10.696;2022-12-24T07:26:14;9.45;;;1.83;;
30571;SDS011;17348;50.948;10.696;2022-12-24T07:29:16;4.55;;;1.55;;
30571;SDS011;17348;50.948;10.696;2022-12-24T07:32:19;4.95;;;1.35;;
30571;SDS011;17348;50.948;10.696;2022-12-24T07:35:21;9.88;;;1.60;;
30571;SDS011;17348;50.948;10.696;2022-12-24T07:38:25;7.82;;;1.10;;
30571;SDS011;17348;50.948;10.696;2022-12-24T07:41:27;17.05;;;1.52;;
30571;SDS011;17348;50.948;10.696;2022-12-24T07:44:30;8.07;;;1.08;;
30571;SDS011;17348;50.948;10.696;2022-12-24T07:47:33;7.20;;;1.13;;
30571;SDS011;17348;50.948;10.696;2022-12-24T07:50:35;7.97;;;1.50;;
30571;SDS011;17348;50.948;10.696;2022-12-24T07:53:39;5.78;;;1.30;;
30571;SDS011;17348;50.948;10.696;2022-12-24T07:56:47;4.07;;;1.15;;
30571;SDS011;17348;50.948;10.696;2022-12-24T07:59:49;9.52;;;1.30;;
30571;SDS011;17348;50.948;10.696;2022-12-24T08:02:52;3.90;;;0.82;;
30571;SDS011;17348;50.948;10.696;2022-12-24T08:05:54;10.40;;;1.73;;
30571;SDS011;17348;50.948;10.696;2022-12-24T08:08:59;15.53;;;1.17;;
30571;SDS011;17348;50.948;10.696;2022-12-24T08:12:01;11.23;;;1.48;;
30571;SDS011;17348;50.948;10.696;2022-12-24T08:15:05;14.90;;;1.65;;
30571;SDS011;17348;50.948;10.696;2022-12-24T08:18:08;13.90;;;1.40;;
30571;SDS011;17348;50.948;10.696;2022-12-24T08:21:11;9.75;;;1.65;;
30571;SDS011;17348;50.948;10.696;2022-12-24T08:24:15;9.05;;;1.70;;
30571;SDS011;17348;50.948;10.696;2022-12-24T08:27:17;5.60;;;1.75;;
30571;SDS011;17348;50.948;10.696;2022-12-24T08:30:20;15.55;;;2.08;;
30571;SDS011;17348;50.948;10.696;2022-12-24T08:33:22;4.03;;;1.10;;
30571;SDS011;17348;50.948;10.696;2022-12-24T08:36:24;9.35;;;1.45;;
30571;SDS011;17348;50.948;10.696;2022-12-24T08:39:28;10.35;;;1.10;;
30571;SDS011;17348;50.948;10.696;2022-12-24T08:42:31;12.60;;;2.28;;
30571;SDS011;17348;50.948;10.696;2022-12-24T08:45:33;10.95;;;1.42;;
30571;SDS011;17348;50.948;10.696;2022-12-24T08:48:36;6.40;;;1.13;;
30571;SDS011;17348;50.948;10.696;2022-12-24T08:51:38;6.70;;;1.27;;
30571;SDS011;17348;50.948;10.696;2022-12-24T08:54:42;8.10;;;1.30;;
30571;SDS011;17348;50.948;10.696;2022-12-24T08:57:44;10.10;;;1.58;;
30571;SDS011;17348;50.948;10.696;2022-12-24T09:00:47;4.07;;;1.08;;
30571;SDS011;17348;50.948;10.696;2022-12-24T09:03:49;5.90;;;1.95;;
30571;SDS011;17348;50.948;10.696;2022-12-24T09:06:52;4.53;;;1.10;;
30571;SDS011;17348;50.948;10.696;2022-12-24T09:09:55;5.60;;;1.08;;
30571;SDS011;17348;50.948;10.696;2022-12-24T09:12:58;6.70;;;1.67;;
30571;SDS011;17348;50.948;10.696;2022-12-24T09:16:00;8.27;;;1.52;;
30571;SDS011;17348;50.948;10.696;2022-12-24T09:19:02;19.65;;;2.28;;
30571;SDS011;17348;50.948;10.696;2022-12-24T09:22:05;5.03;;;1.30;;
30571;SDS011;17348;50.948;10.696;2022-12-24T09:25:09;8.70;;;1.88;;
30571;SDS011;17348;50.948;10.696;2022-12-24T09:28:11;11.98;;;2.08;;
30571;SDS011;17348;50.948;10.696;2022-12-24T09:31:14;6.57;;;1.80;;
30571;SDS011;17348;50.948;10.696;2022-12-24T09:34:19;14.95;;;1.85;;
30571;SDS011;17348;50.948;10.696;2022-12-24T09:37:22;3.53;;;1.33;;
30571;SDS011;17348;50.948;10.696;2022-12-24T09:40:26;5.68;;;1.80;;
30571;SDS011;17348;50.948;10.696;2022-12-24T09:43:34;7.65;;;1.27;;
30571;SDS011;17348;50.948;10.696;2022-12-24T09:46:38;7.38;;;1.60;;
30571;SDS011;17348;50.948;10.696;2022-12-24T09:49:45;5.47;;;1.85;;
30571;SDS011;17348;50.948;10.696;2022-12-24T09:52:50;5.40;;;1.42;;
30571;SDS011;17348;50.948;10.696;2022-12-24T09:55:56;4.47;;;0.77;;
30571;SDS011;17348;50.948;10.696;2022-12-24T09:59:01;1.45;;;0.82;;
30571;SDS011;17348;50.948;10.696;2022-12-24T10:02:08;5.45;;;0.98;;
30571;SDS011;17348;50.948;10.696;2022-12-24T10:05:12;2.80;;;0.70;;
30571;SDS011;17348;50.948;10.696;2022-12-24T10:08:18;2.63;;;1.00;;
30571;SDS011;17348;50.948;10.696;2022-12-24T10:11:29;1.30;;;0.70;;
30571;SDS011;17348;50.948;10.696;2022-12-24T10:14:41;10.67;;;1.93;;
30571;SDS011;17348;50.948;10.696;2022-12-24T10:17:59;6.38;;;1.75;;
30571;SDS011;17348;50.948;10.696;2022-12-24T10:21:11;10.85;;;1.98;;
30571;SDS011;17348;50.948;10.696;2022-12-24T10:24:17;12.65;;;1.70;;
30571;SDS011;17348;50.948;10.696;2022-12-24T10:27:27;8.48;;;1.70;;
30571;SDS011;17348;50.948;10.696;2022-12-24T10:30:33;9.35;;;1.73;;
30571;SDS011;17348;50.948;10.696;2022-12-24T10:33:37;3.75;;;1.20;;
30571;SDS011;17348;50.948;10.696;2022-12-24T10:36:42;10.18;;;1.70;;
30571;SDS011;17348;50.948;10.696;2022-12-24T10:39:45;4.35;;;1.23;;
30571;SDS011;17348;50.948;10.696;2022-12-24T10:42:49;8.45;;;1.45;;
30571;SDS011;17348;50.948;10.696;2022-12-24T10:45:52;9.15;;;2.28;;
30571;SDS011;17348;50.948;10.696;2022-12-24T10:48:58;6.22;;;2.08;;
30571;SDS011;17348;50.948;10.696;2022-12-24T10:52:04;6.85;;;1.23;;
30571;SDS011;17348;50.948;10.696;2022-12-24T10:55:20;8.70;;;1.60;;
30571;SDS011;17348;50.948;10.696;2022-12-24T10:58:25;8.65;;;1.90;;
30571;SDS011;17348;50.948;10.696;2022-12-24T11:01:41;8.73;;;1.92;;
30571;SDS011;17348;50.948;10.696;2022-12-24T11:04:45;5.28;;;1.30;;
30571;SDS011;17348;50.948;10.696;2022-12-24T11:07:53;5.82;;;1.42;;
30571;SDS011;17348;50.948;10.696;2022-12-24T11:11:01;9.27;;;2.08;;
30571;SDS011;17348;50.948;10.696;2022-12-24T11:14:12;10.00;;;1.73;;
30571;SDS011;17348;50.948;10.696;2022-12-24T11:17:17;9.65;;;1.15;;
30571;SDS011;17348;50.948;10.696;2022-12-24T11:20:25;5.57;;;1.65;;
30571;SDS011;17348;50.948;10.696;2022-12-24T11:23:28;12.55;;;1.52;;
30571;SDS011;17348;50.948;10.696;2022-12-24T11:26:31;7.28;;;1.10;;
30571;SDS011;17348;50.948;10.696;2022-12-24T11:29:35;10.80;;;1.38;;
30571;SDS011;17348;50.948;10.696;2022-12-24T11:32:38;9.23;;;1.42;;
30571;SDS011;17348;50.948;10.696;2022-12-24T11:35:41;13.65;;;1.75;;
30571;SDS011;17348;50.948;10.696;2022-12-24T11:38:50;8.93;;;1.83;;
30571;SDS011;17348;50.948;10.696;2022-12-24T11:41:54;6.93;;;1.35;;
30571;SDS011;17348;50.948;10.696;2022-12-24T11:44:58;7.05;;;2.42;;
30571;SDS011;17348;50.948;10.696;2022-12-24T11:48:20;9.23;;;2.20;;
30571;SDS011;17348;50.948;10.696;2022-12-24T11:51:28;7.00;;;2.00;;
30571;SDS011;17348;50.948;10.696;2022-12-24T11:54:31;14.25;;;2.35;;
30571;SDS011;17348;50.948;10.696;2022-12-24T11:57:40;6.95;;;2.13;;
30571;SDS011;17348;50.948;10.696;2022-12-24T12:00:50;6.95;;;2.00;;
30571;SDS011;17348;50.948;10.696;2022-12-24T12:03:59;9.90;;;1.77;;
30571;SDS011;17348;50.948;10.696;2022-12-24T12:07:05;10.18;;;2.00;;
30571;SDS011;17348;50.948;10.696;2022-12-24T12:10:14;18.95;;;3.10;;
30571;SDS011;17348;50.948;10.696;2022-12-24T12:13:21;7.80;;;2.13;;
30571;SDS011;17348;50.948;10.696;2022-12-24T12:16:36;13.05;;;3.80;;
30571;SDS011;17348;50.948;10.696;2022-12-24T12:20:04;22.45;;;3.50;;
30571;SDS011;17348;50.948;10.696;2022-12-24T12:23:14;22.77;;;5.40;;
30571;SDS011;17348;50.948;10.696;2022-12-24T12:26:21;10.43;;;2.70;;
30571;SDS011;17348;50.948;10.696;2022-12-24T12:29:27;19.33;;;3.28;;
30571;SDS011;17348;50.948;10.696;2022-12-24T12:32:38;13.60;;;1.90;;
30571;SDS011;17348;50.948;10.696;2022-12-24T12:35:46;12.60;;;2.80;;
30571;SDS011;17348;50.948;10.696;2022-12-24T12:38:50;8.90;;;2.20;;
30571;SDS011;17348;50.948;10.696;2022-12-24T12:41:53;16.67;;;2.47;;
30571;SDS011;17348;50.948;10.696;2022-12-24T12:45:10;8.50;;;1.90;;
30571;SDS011;17348;50.948;10.696;2022-12-24T12:48:39;20.08;;;2.95;;
30571;SDS011;17348;50.948;10.696;2022-12-24T12:51:56;12.43;;;2.30;;
30571;SDS011;17348;50.948;10.696;2022-12-24T12:55:07;11.97;;;2.00;;
30571;SDS011;17348;50.948;10.696;2022-12-24T12:58:24;15.38;;;1.90;;
30571;SDS011;17348;50.948;10.696;2022-12-24T13:01:33;19.08;;;2.47;;
30571;SDS011;17348;50.948;10.696;2022-12-24T13:08:31;9.93;;;2.13;;
30571;SDS011;17348;50.948;10.696;2022-12-24T13:11:49;12.88;;;2.28;;
30571;SDS011;17348;50.948;10.696;2022-12-24T13:15:10;15.63;;;2.35;;
30571;SDS011;17348;50.948;10.696;2022-12-24T13:18:37;22.33;;;2.20;;
30571;SDS011;17348;50.948;10.696;2022-12-24T13:21:47;13.88;;;2.70;;
30571;SDS011;17348;50.948;10.696;2022-12-24T13:24:52;14.95;;;2.25;;
30571;SDS011;17348;50.948;10.696;2022-12-24T13:27:56;10.38;;;2.30;;
30571;SDS011;17348;50.948;10.696;2022-12-24T13:31:24;20.67;;;2.40;;
30571;SDS011;17348;50.948;10.696;2022-12-24T13:34:32;13.38;;;2.25;;
30571;SDS011;17348;50.948;10.696;2022-12-24T13:37:38;15.50;;;2.20;;
30571;SDS011;17348;50.948;10.696;2022-12-24T13:40:40;20.98;;;3.20;;
30571;SDS011;17348;50.948;10.696;2022-12-24T13:50:22;26.38;;;4.15;;
30571;SDS011;17348;50.948;10.696;2022-12-24T13:53:39;13.50;;;3.88;;
30571;SDS011;17348;50.948;10.696;2022-12-24T13:56:44;19.27;;;4.93;;
30571;SDS011;17348;50.948;10.696;2022-12-24T13:59:47;16.65;;;4.10;;
30571;SDS011;17348;50.948;10.696;2022-12-24T14:03:00;13.73;;;3.78;;
30571;SDS011;17348;50.948;10.696;2022-12-24T14:06:08;24.95;;;5.13;;
30571;SDS011;17348;50.948;10.696;2022-12-24T14:09:14;10.82;;;3.20;;
30571;SDS011;17348;50.948;10.696;2022-12-24T14:19:11;16.38;;;3.40;;
30571;SDS011;17348;50.948;10.696;2022-12-24T14:22:18;12.65;;;3.17;;
30571;SDS011;17348;50.948;10.696;2022-12-24T14:25:27;13.48;;;3.67;;
30571;SDS011;17348;50.948;10.696;2022-12-24T14:28:33;11.95;;;3.00;;
30571;SDS011;17348;50.948;10.696;2022-12-24T14:31:48;17.03;;;3.17;;
30571;SDS011;17348;50.948;10.696;2022-12-24T14:35:03;14.07;;;3.03;;
30571;SDS011;17348;50.948;10.696;2022-12-24T14:38:12;10.18;;;2.78;;
30571;SDS011;17348;50.948;10.696;2022-12-24T14:41:22;15.35;;;2.65;;
30571;SDS011;17348;50.948;10.696;2022-12-24T14:44:35;15.55;;;2.35;;
30571;SDS011;17348;50.948;10.696;2022-12-24T14:47:46;12.35;;;2.40;;
30571;SDS011;17348;50.948;10.696;2022-12-24T14:50:58;19.42;;;2.55;;
30571;SDS011;17348;50.948;10.696;2022-12-24T14:54:20;20.55;;;3.60;;
30571;SDS011;17348;50.948;10.696;2022-12-24T14:57:35;12.02;;;2.55;;
30571;SDS011;17348;50.948;10.696;2022-12-24T15:00:37;12.77;;;3.40;;
30571;SDS011;17348;50.948;10.696;2022-12-24T15:03:43;10.38;;;2.80;;
30571;SDS011;17348;50.948;10.696;2022-12-24T15:06:46;14.02;;;2.58;;
30571;SDS011;17348;50.948;10.696;2022-12-24T15:09:52;13.70;;;3.08;;
30571;SDS011;17348;50.948;10.696;2022-12-24T15:12:56;13.57;;;2.65;;
30571;SDS011;17348;50.948;10.696;2022-12-24T15:16:03;8.90;;;3.13;;
30571;SDS011;17348;50.948;10.696;2022-12-24T15:19:10;6.13;;;2.42;;
30571;SDS011;17348;50.948;10.696;2022-12-24T15:22:22;8.93;;;2.25;;
30571;SDS011;17348;50.948;10.696;2022-12-24T15:25:27;15.50;;;2.90;;
30571;SDS011;17348;50.948;10.696;2022-12-24T15:28:35;19.25;;;2.53;;
30571;SDS011;17348;50.948;10.696;2022-12-24T15:31:38;9.18;;;3.13;;
30571;SDS011;17348;50.948;10.696;2022-12-24T15:34:41;14.73;;;3.13;;
30571;SDS011;17348;50.948;10.696;2022-12-24T15:37:46;8.25;;;3.10;;
30571;SDS011;17348;50.948;10.696;2022-12-24T15:40:49;12.73;;;2.78;;
30571;SDS011;17348;50.948;10.696;2022-12-24T15:43:53;14.38;;;2.63;;
30571;SDS011;17348;50.948;10.696;2022-12-24T15:47:01;9.82;;;2.58;;
30571;SDS011;17348;50.948;10.696;2022-12-24T15:50:09;15.88;;;3.40;;
30571;SDS011;17348;50.948;10.696;2022-12-24T15:53:20;11.80;;;2.78;;
30571;SDS011;17348;50.948;10.696;2022-12-24T15:56:27;10.63;;;2.13;;
30571;SDS011;17348;50.948;10.696;2022-12-24T15:59:36;13.68;;;2.50;;
30571;SDS011;17348;50.948;10.696;2022-12-24T16:02:38;10.15;;;1.90;;
30571;SDS011;17348;50.948;10.696;2022-12-24T16:05:41;19.85;;;3.05;;
30571;SDS011;17348;50.948;10.696;2022-12-24T16:08:44;13.30;;;3.22;;
30571;SDS011;17348;50.948;10.696;2022-12-24T16:11:47;19.77;;;3.10;;
30571;SDS011;17348;50.948;10.696;2022-12-24T16:14:51;10.60;;;2.80;;
30571;SDS011;17348;50.948;10.696;2022-12-24T16:18:03;10.60;;;3.13;;
30571;SDS011;17348;50.948;10.696;2022-12-24T16:21:05;14.43;;;2.97;;
30571;SDS011;17348;50.948;10.696;2022-12-24T16:24:12;15.70;;;3.60;;
30571;SDS011;17348;50.948;10.696;2022-12-24T16:27:16;16.27;;;3.23;;
30571;SDS011;17348;50.948;10.696;2022-12-24T16:30:20;11.07;;;2.67;;
30571;SDS011;17348;50.948;10.696;2022-12-24T16:33:22;12.07;;;2.97;;
30571;SDS011;17348;50.948;10.696;2022-12-24T16:36:25;20.33;;;2.90;;
30571;SDS011;17348;50.948;10.696;2022-12-24T16:39:28;11.30;;;2.50;;
30571;SDS011;17348;50.948;10.696;2022-12-24T16:42:32;10.93;;;2.40;;
30571;SDS011;17348;50.948;10.696;2022-12-24T16:45:52;9.70;;;2.70;;
30571;SDS011;17348;50.948;10.696;2022-12-24T16:49:00;12.43;;;2.53;;
30571;SDS011;17348;50.948;10.696;2022-12-24T16:52:02;18.27;;;2.70;;
30571;SDS011;17348;50.948;10.696;2022-12-24T16:55:05;18.60;;;3.40;;
30571;SDS011;17348;50.948;10.696;2022-12-24T16:58:08;19.53;;;3.53;;
30571;SDS011;17348;50.948;10.696;2022-12-24T17:01:14;17.33;;;5.33;;
30571;SDS011;17348;50.948;10.696;2022-12-24T17:04:16;22.87;;;5.70;;
30571;SDS011;17348;50.948;10.696;2022-12-24T17:07:19;15.63;;;5.17;;
30571;SDS011;17348;50.948;10.696;2022-12-24T17:10:22;15.47;;;4.70;;
30571;SDS011;17348;50.948;10.696;2022-12-24T17:13:24;14.10;;;4.80;;
30571;SDS011;17348;50.948;10.696;2022-12-24T17:16:28;16.27;;;4.40;;
30571;SDS011;17348;50.948;10.696;2022-12-24T17:19:30;18.67;;;5.30;;
30571;SDS011;17348;50.948;10.696;2022-12-24T17:22:32;22.83;;;4.87;;
30571;SDS011;17348;50.948;10.696;2022-12-24T17:25:36;23.50;;;4.20;;
30571;SDS011;17348;50.948;10.696;2022-12-24T17:28:38;20.27;;;4.40;;
30571;SDS011;17348;50.948;10.696;2022-12-24T17:31:42;25.30;;;5.53;;
30571;SDS011;17348;50.948;10.696;2022-12-24T17:34:44;15.97;;;5.00;;
30571;SDS011;17348;50.948;10.696;2022-12-24T17:37:47;20.50;;;4.53;;
30571;SDS011;17348;50.948;10.696;2022-12-24T17:40:49;22.13;;;4.33;;
30571;SDS011;17348;50.948;10.696;2022-12-24T17:43:51;31.60;;;6.00;;
30571;SDS011;17348;50.948;10.696;2022-12-24T17:46:55;23.97;;;5.60;;
30571;SDS011;17348;50.948;10.696;2022-12-24T17:49:57;28.93;;;6.20;;
30571;SDS011;17348;50.948;10.696;2022-12-24T17:53:00;33.70;;;10.37;;
30571;SDS011;17348;50.948;10.696;2022-12-24T17:56:02;29.37;;;9.50;;
30571;SDS011;17348;50.948;10.696;2022-12-24T17:59:05;22.93;;;7.47;;
30571;SDS011;17348;50.948;10.696;2022-12-24T18:02:09;29.33;;;8.57;;
30571;SDS011;17348;50.948;10.696;2022-12-24T18:05:13;23.23;;;6.40;;
30571;SDS011;17348;50.948;10.696;2022-12-24T18:08:15;34.90;;;7.07;;
30571;SDS011;17348;50.948;10.696;2022-12-24T18:11:18;25.37;;;7.00;;
30571;SDS011;17348;50.948;10.696;2022-12-24T18:14:23;23.30;;;5.83;;
30571;SDS011;17348;50.948;10.696;2022-12-24T18:17:27;42.17;;;16.03;;
30571;SDS011;17348;50.948;10.696;2022-12-24T18:20:29;29.73;;;12.83;;
30571;SDS011;17348;50.948;10.696;2022-12-24T18:23:34;30.50;;;10.93;;
30571;SDS011;17348;50.948;10.696;2022-12-24T18:26:36;40.13;;;12.97;;